Terminal Aerodrome Forecast
Issued by NWS

Home | Current Version | Previous Version | Graphics & Text | Print | Product List | Glossary On
Versions: 1 2 3 4 5 6 7 8 9 10 11 12
000
FTUS45 KGGW 252320
TAFGDV
TAF
KGDV 252320Z 2600/2624 30006KT P6SM SCT070
     FM260300 24004KT P6SM SCT080
     FM261800 23007KT P6SM VCSH BKN080
     FM262100 27008KT P6SM VCSH BKN070=

USA.gov is the U.S. government's official web portal to all federal, state and local government web resources and services.